Mora, Mora Municipal Airport (KJMR)

NameMora Municipal Airport
CityMora
CountryUnited States
ICAOKJMR
IATA
Altitude308 m
CoordinatesGoogle Map
Live Air TrafficLiveATC.net
METARKJMR 242155Z AUTO 31008KT 10SM SCT065 17/12 A2963 RMK AO2
2019-06-24 21:55:00 Wind: West-Northwest (310°) 4.12 m/s - Visibility: 16093.4 m - Temperature: 17 °C - Dew point: 12 °C - Humidity: 72.6% - Pressure: 1003.39 hPa

Sorry, no flights used the airport in this database.